createdAt,value
2022-10-16T00:08:26.762Z,11.4
2022-10-16T00:18:28.783Z,11.2
2022-10-16T00:28:30.739Z,11.1
2022-10-16T00:58:37.775Z,10.9
2022-10-16T01:08:40.090Z,10.7
2022-10-16T01:18:42.077Z,10.6
2022-10-16T01:38:45.576Z,10.5
2022-10-16T01:58:50.209Z,10.3
2022-10-16T02:28:56.321Z,10.2
2022-10-16T02:38:58.207Z,10.2
2022-10-16T02:59:09.392Z,10.5
2022-10-16T03:19:13.644Z,10.6
2022-10-16T03:29:16.135Z,10.6
2022-10-16T03:49:20.389Z,10.8
2022-10-16T04:39:30.399Z,11.1
2022-10-16T04:49:32.300Z,11
2022-10-16T04:59:33.951Z,11.1
2022-10-16T05:09:36.264Z,11
2022-10-16T05:49:44.048Z,11.4
2022-10-16T05:59:46.554Z,11.3
2022-10-16T07:40:06.610Z,12.2
2022-10-16T07:50:08.953Z,12.5
2022-10-16T08:10:13.253Z,14
2022-10-16T08:30:16.667Z,14.6
2022-10-16T09:20:27.719Z,15.6
2022-10-16T09:30:29.513Z,15.7
2022-10-16T09:40:31.982Z,15.1
2022-10-16T09:50:34.185Z,15.8
2022-10-16T10:00:36.379Z,15.7
2022-10-16T10:20:40.919Z,16.4
2022-10-16T10:30:43.383Z,16.9
2022-10-16T10:40:45.551Z,17.1
2022-10-16T10:50:48.066Z,17.4
2022-10-16T11:00:50.064Z,17.2
2022-10-16T11:10:51.907Z,16.7
2022-10-16T11:30:55.927Z,16.9
2022-10-16T11:40:58.200Z,16.5
2022-10-16T11:50:59.946Z,16.3
2022-10-16T12:01:02.516Z,17
2022-10-16T12:11:04.908Z,18.8
2022-10-16T12:21:07.060Z,19.9
2022-10-16T12:31:09.511Z,21
2022-10-16T12:41:11.535Z,20.9
2022-10-16T12:51:13.851Z,19.7
2022-10-16T13:01:16.433Z,18.8
2022-10-16T13:11:18.160Z,20.3
2022-10-16T13:21:20.673Z,20.4
2022-10-16T13:31:22.668Z,20.6
2022-10-16T13:41:24.464Z,20.8
2022-10-16T13:51:26.972Z,21.1
2022-10-16T14:01:31.643Z,19
2022-10-16T14:11:30.850Z,18.5
2022-10-16T14:21:32.601Z,18.4
2022-10-16T14:41:37.380Z,17.5
2022-10-16T14:51:39.748Z,17.1
2022-10-16T15:01:41.429Z,17
2022-10-16T15:11:43.256Z,17.3
2022-10-16T15:21:45.696Z,17
2022-10-16T15:31:48.156Z,16.9
2022-10-16T15:41:50.770Z,16.6
2022-10-16T15:51:53.005Z,16.3
2022-10-16T16:01:55.198Z,16
2022-10-16T16:11:56.963Z,15.8
2022-10-16T16:21:59.189Z,15.4
2022-10-16T16:32:01.586Z,15
2022-10-16T16:42:03.383Z,14.5
2022-10-16T16:52:05.658Z,14.2
2022-10-16T17:02:07.630Z,13.9
2022-10-16T17:12:09.266Z,13.7
2022-10-16T17:22:11.382Z,13.5
2022-10-16T17:32:13.311Z,13.5
2022-10-16T17:42:15.051Z,13.4
2022-10-16T17:52:16.882Z,13.4
2022-10-16T18:02:18.981Z,13.4
2022-10-16T18:12:20.719Z,13.4
2022-10-16T18:22:23.060Z,13.5
2022-10-16T18:32:25.177Z,13.5
2022-10-16T18:52:29.394Z,13.3
2022-10-16T19:12:34.097Z,13.4
2022-10-16T19:22:36.199Z,13.4
2022-10-16T19:32:38.153Z,13.4
2022-10-16T19:42:40.587Z,13.5
2022-10-16T19:52:42.259Z,13.5
2022-10-16T20:02:44.739Z,13.4
2022-10-16T20:12:46.566Z,13.3
2022-10-16T20:22:48.647Z,13.3
2022-10-16T20:32:50.812Z,13.3
2022-10-16T20:42:53.274Z,13.3
2022-10-16T20:52:55.913Z,13.3
2022-10-16T21:02:57.729Z,13.3
2022-10-16T21:12:59.741Z,13.2
2022-10-16T21:23:01.540Z,13
2022-10-16T21:33:03.420Z,12.9
2022-10-16T21:43:05.235Z,12.8
2022-10-16T21:53:07.580Z,12.6
2022-10-16T22:03:09.611Z,12.6
2022-10-16T22:13:11.605Z,12.2
2022-10-16T22:23:13.625Z,12.3
2022-10-16T22:33:15.361Z,12.3
2022-10-16T22:43:17.013Z,12.4
2022-10-16T22:53:19.316Z,12
2022-10-16T23:13:23.729Z,11.7
2022-10-16T23:23:26.040Z,11.6
2022-10-16T23:33:28.583Z,11.7
2022-10-16T23:43:30.420Z,11.7
2022-10-16T23:53:32.210Z,11.6
